createdAt,value
2019-05-28T00:01:05.652Z,31.50
2019-05-28T00:04:00.769Z,31.50
2019-05-28T00:06:55.536Z,31.50
2019-05-28T00:09:50.445Z,31.60
2019-05-28T00:12:44.990Z,31.60
2019-05-28T00:15:39.675Z,31.60
2019-05-28T00:18:34.279Z,31.60
2019-05-28T00:21:28.682Z,31.60
2019-05-28T00:24:23.337Z,31.70
2019-05-28T00:27:18.267Z,31.70
2019-05-28T00:30:19.661Z,31.70
2019-05-28T00:33:09.586Z,31.70
2019-05-28T00:36:04.720Z,31.70
2019-05-28T00:38:59.207Z,31.70
2019-05-28T00:41:53.692Z,31.70
2019-05-28T00:44:48.213Z,31.80
2019-05-28T00:47:43.049Z,31.80
2019-05-28T00:50:37.729Z,31.90
2019-05-28T00:53:31.942Z,31.80
2019-05-28T00:56:26.573Z,31.80
2019-05-28T00:59:21.362Z,31.90
2019-05-28T01:02:15.851Z,31.90
2019-05-28T01:05:11.789Z,31.90
2019-05-28T01:08:09.241Z,32.00
2019-05-28T01:11:03.511Z,32.00
2019-05-28T01:13:57.892Z,31.90
2019-05-28T01:16:52.157Z,32.00
2019-05-28T01:19:46.571Z,32.00
2019-05-28T01:22:42.153Z,32.00
2019-05-28T01:25:36.499Z,32.00
2019-05-28T01:28:30.774Z,32.10
2019-05-28T01:31:25.820Z,32.10
2019-05-28T01:34:20.250Z,32.10
2019-05-28T01:37:16.381Z,32.10
2019-05-28T01:40:11.032Z,32.20
2019-05-28T01:43:05.571Z,32.20
2019-05-28T01:46:01.837Z,32.20
2019-05-28T01:48:56.395Z,32.20
2019-05-28T01:51:52.519Z,32.20
2019-05-28T01:54:47.072Z,32.20
2019-05-28T01:57:41.278Z,32.20
2019-05-28T02:00:35.869Z,32.20
2019-05-28T02:03:30.483Z,32.20
2019-05-28T02:06:25.056Z,32.20
2019-05-28T02:09:19.283Z,32.20
2019-05-28T02:12:13.799Z,32.20
2019-05-28T02:15:09.067Z,32.20
2019-05-28T02:18:04.791Z,32.20
2019-05-28T02:20:59.346Z,32.20
2019-05-28T02:23:53.600Z,32.30
2019-05-28T02:26:48.158Z,32.30
2019-05-28T02:29:42.645Z,32.20
2019-05-28T02:32:36.910Z,32.30
2019-05-28T02:35:31.336Z,32.30
2019-05-28T02:38:25.537Z,32.30
2019-05-28T02:41:20.124Z,32.30
2019-05-28T02:44:14.603Z,32.30
2019-05-28T02:47:09.977Z,32.30
2019-05-28T02:50:04.366Z,32.30
2019-05-28T02:52:59.026Z,32.30
2019-05-28T02:55:53.952Z,32.30
2019-05-28T02:58:52.723Z,32.30
2019-05-28T03:01:48.238Z,32.30
2019-05-28T03:04:42.896Z,32.30
2019-05-28T03:07:39.529Z,32.30
2019-05-28T03:11:01.389Z,32.40
2019-05-28T03:13:35.880Z,32.40
2019-05-28T03:16:33.018Z,32.40
2019-05-28T03:19:29.878Z,32.40
2019-05-28T03:22:24.844Z,32.40
2019-05-28T03:25:21.354Z,32.40
2019-05-28T03:28:15.978Z,32.40
2019-05-28T03:31:11.151Z,32.40
2019-05-28T03:34:07.416Z,32.50
2019-05-28T03:37:03.811Z,32.50
2019-05-28T03:40:01.554Z,32.60
2019-05-28T03:42:58.166Z,32.50
2019-05-28T03:45:52.774Z,32.40
2019-05-28T03:48:47.612Z,32.40
2019-05-28T03:51:41.797Z,32.30
2019-05-28T03:54:36.716Z,32.20
2019-05-28T03:57:32.904Z,32.10
2019-05-28T04:00:29.337Z,32.00
2019-05-28T04:03:24.072Z,32.00
2019-05-28T04:06:18.845Z,31.90
2019-05-28T04:09:15.184Z,31.80
2019-05-28T04:12:09.555Z,31.70
2019-05-28T04:15:03.781Z,31.70
2019-05-28T04:17:58.017Z,31.60
2019-05-28T04:20:52.345Z,31.60
2019-05-28T04:23:46.771Z,31.50
2019-05-28T04:26:41.085Z,31.50
2019-05-28T04:29:35.501Z,31.40
2019-05-28T04:32:40.084Z,31.40
2019-05-28T04:35:25.964Z,31.30
2019-05-28T04:38:22.118Z,31.30
2019-05-28T04:41:18.180Z,31.00
2019-05-28T04:44:12.470Z,30.70
2019-05-28T04:47:11.658Z,30.50
2019-05-28T04:50:06.561Z,30.40
2019-05-28T04:53:06.168Z,30.40
2019-05-28T04:56:00.439Z,30.30
2019-05-28T04:58:55.704Z,30.30
2019-05-28T05:01:50.179Z,30.30
2019-05-28T05:04:47.113Z,30.30
2019-05-28T05:07:41.510Z,30.30
2019-05-28T05:10:35.934Z,30.30
2019-05-28T05:13:37.823Z,30.20
2019-05-28T05:16:37.987Z,30.10
2019-05-28T05:19:33.488Z,30.10
2019-05-28T05:22:36.014Z,30.10
2019-05-28T05:25:39.456Z,30.10
2019-05-28T05:29:00.448Z,30.00
2019-05-28T05:31:56.751Z,29.90
2019-05-28T05:34:55.448Z,29.70
2019-05-28T05:37:51.813Z,29.70
2019-05-28T05:40:50.288Z,29.70
2019-05-28T05:43:45.227Z,29.80
2019-05-28T05:46:42.523Z,29.70
2019-05-28T05:49:41.387Z,29.70
2019-05-28T05:52:38.086Z,29.60
2019-05-28T05:55:34.739Z,29.60
2019-05-28T06:05:13.535Z,29.40
2019-05-28T06:08:19.032Z,29.40
2019-05-28T06:11:16.486Z,29.40
2019-05-28T06:14:17.804Z,29.40
2019-05-28T06:17:14.034Z,29.40
2019-05-28T06:20:10.437Z,29.40
2019-05-28T06:23:05.425Z,29.30
2019-05-28T06:26:02.931Z,29.20
2019-05-28T06:28:59.615Z,29.30
2019-05-28T06:32:03.766Z,29.30
2019-05-28T06:35:01.259Z,29.20
2019-05-28T06:38:15.961Z,29.20
2019-05-28T06:41:11.593Z,29.20
2019-05-28T06:44:09.315Z,29.10
2019-05-28T06:47:09.341Z,29.10
2019-05-28T06:50:07.755Z,29.00
2019-05-28T06:53:05.970Z,29.00
2019-05-28T06:56:02.858Z,29.00
2019-05-28T06:58:58.016Z,29.00
2019-05-28T07:01:54.497Z,29.00
2019-05-28T07:04:54.257Z,28.90
2019-05-28T07:07:52.017Z,28.90
2019-05-28T07:10:57.160Z,28.80
2019-05-28T07:13:48.285Z,28.80
2019-05-28T07:16:53.300Z,28.70
2019-05-28T07:19:40.790Z,28.70
2019-05-28T07:22:35.374Z,28.70
2019-05-28T07:25:29.544Z,28.80
2019-05-28T07:28:24.664Z,28.90
2019-05-28T07:31:21.711Z,28.90
2019-05-28T07:34:30.851Z,28.80
2019-05-28T07:37:20.291Z,28.80
2019-05-28T07:40:30.419Z,28.80
2019-05-28T07:43:19.571Z,28.80
2019-05-28T07:46:16.331Z,28.70
2019-05-28T07:49:14.031Z,28.70
2019-05-28T07:52:08.994Z,28.70
2019-05-28T07:55:03.756Z,28.60
2019-05-28T07:58:00.769Z,28.70
2019-05-28T08:00:56.629Z,28.80
2019-05-28T08:03:53.446Z,28.70
2019-05-28T08:07:03.630Z,28.70
2019-05-28T08:10:09.265Z,28.70
2019-05-28T08:13:15.982Z,28.70
2019-05-28T08:16:26.726Z,28.70
2019-05-28T08:19:22.768Z,28.70
2019-05-28T08:26:08.302Z,28.60
2019-05-28T08:29:16.936Z,28.60
2019-05-28T08:32:16.553Z,28.60
2019-05-28T08:39:26.671Z,28.70
2019-05-28T08:42:22.181Z,28.80
2019-05-28T08:45:18.060Z,28.90
2019-05-28T08:48:12.893Z,28.90
2019-05-28T08:51:10.528Z,28.90
2019-05-28T08:54:20.274Z,28.80
2019-05-28T08:57:21.039Z,28.80
2019-05-28T09:00:21.125Z,28.80
2019-05-28T09:03:18.631Z,29.00
2019-05-28T09:11:18.241Z,28.90
2019-05-28T09:14:58.585Z,28.90
2019-05-28T09:18:36.871Z,28.90
2019-05-28T09:26:37.516Z,28.80
2019-05-28T09:29:41.610Z,28.70
2019-05-28T09:33:09.630Z,28.80
2019-05-28T09:36:08.975Z,28.70
2019-05-28T09:39:04.461Z,28.70
2019-05-28T09:42:05.617Z,28.70
2019-05-28T09:45:45.807Z,28.60
2019-05-28T09:51:38.437Z,28.50
2019-05-28T09:54:57.291Z,28.50
2019-05-28T09:57:56.126Z,28.50
2019-05-28T10:00:58.343Z,28.50
2019-05-28T10:04:01.154Z,28.50
2019-05-28T10:07:06.205Z,28.50
2019-05-28T10:10:08.387Z,28.40
2019-05-28T10:13:07.007Z,28.50
2019-05-28T10:16:04.440Z,28.50
2019-05-28T10:19:14.583Z,28.40
2019-05-28T10:22:12.746Z,28.40
2019-05-28T10:25:09.461Z,28.40
2019-05-28T10:28:10.048Z,28.50
2019-05-28T10:31:06.540Z,28.50
2019-05-28T10:34:04.344Z,28.50
2019-05-28T10:37:02.599Z,28.50
2019-05-28T10:39:58.263Z,28.50
2019-05-28T10:42:56.702Z,28.30
2019-05-28T10:45:53.487Z,28.30
2019-05-28T10:49:12.226Z,28.30
2019-05-28T10:52:10.782Z,28.40
2019-05-28T10:55:07.730Z,28.50
2019-05-28T10:58:10.642Z,28.50
2019-05-28T11:01:04.361Z,28.50
2019-05-28T11:04:00.142Z,28.60
2019-05-28T11:07:10.523Z,28.60
2019-05-28T11:10:24.388Z,28.70
2019-05-28T11:14:08.808Z,28.80
2019-05-28T11:17:08.004Z,28.80
2019-05-28T11:20:05.085Z,28.90
2019-05-28T11:23:05.941Z,29.00
2019-05-28T11:26:04.832Z,29.00
2019-05-28T11:29:02.778Z,29.00
